Time;durP1;ratioP1;P1;durP2;ratioP2;P2;SDS_P1;SDS_P2;PMS_P1;PMS_P2;Temp;Humidity;BMP_temperature;BMP_pressure;BME280_temperature;BME280_humidity;BME280_pressure;Samples;Min_cycle;Max_cycle;Signal;HPM_P1;HPM_P2
2023/12/04 00:00:50;;;;;;;102.97;43.13;;;;;;;;;;10535037;28;20044;-82
2023/12/04 00:05:51;;;;;;;90.27;40.33;;;;;;;;;;10535080;28;20039;-82
2023/12/04 00:10:54;;;;;;;87.93;41.20;;;;;;;;;;10520000;28;20043;-81
2023/12/04 00:15:55;;;;;;;94.10;44.00;;;;;;;;;;10534719;28;20564;-82
2023/12/04 00:20:56;;;;;;;96.87;43.40;;;;;;;;;;10528710;28;20507;-81
2023/12/04 00:25:57;;;;;;;101.70;44.47;;;;;;;;;;10535818;28;20056;-82
2023/12/04 00:30:58;;;;;;;95.33;43.20;;;;;;;;;;10532709;28;20483;-81
2023/12/04 00:35:59;;;;;;;89.93;39.50;;;;;;;;;;10519020;28;20525;-82
2023/12/04 00:41:00;;;;;;;95.60;42.10;;;;;;;;;;10533823;28;20066;-83
2023/12/04 00:46:01;;;;;;;93.63;43.67;;;;;;;;;;10527678;28;20036;-82
2023/12/04 00:51:35;;;;;;;107.10;46.03;;;;;;;;;;10531284;28;20115;-81
2023/12/04 00:56:42;;;;;;;101.00;45.87;;;;;;;;;;10502642;28;20031;-81
2023/12/04 01:01:43;;;;;;;105.13;45.57;;;;;;;;;;10531987;28;20751;-81
2023/12/04 01:06:44;;;;;;;116.73;50.33;;;;;;;;;;10528145;28;20391;-82
2023/12/04 01:11:45;;;;;;;115.50;53.33;;;;;;;;;;10532869;28;20024;-81
2023/12/04 01:16:46;;;;;;;114.20;52.10;;;;;;;;;;10531879;28;20039;-81
2023/12/04 01:21:47;;;;;;;124.07;53.93;;;;;;;;;;10525959;28;20048;-82
2023/12/04 01:26:48;;;;;;;124.13;55.93;;;;;;;;;;10527969;28;20066;-83
2023/12/04 01:31:49;;;;;;;113.23;49.07;;;;;;;;;;10522000;28;20032;-81
2023/12/04 01:36:50;;;;;;;113.30;47.70;;;;;;;;;;10532030;28;20024;-81
2023/12/04 01:41:51;;;;;;;109.37;46.27;;;;;;;;;;10532101;28;20483;-83
2023/12/04 01:46:52;;;;;;;100.30;43.70;;;;;;;;;;10505494;28;20063;-83
2023/12/04 01:51:53;;;;;;;96.17;42.20;;;;;;;;;;10532216;28;20032;-81
2023/12/04 01:56:55;;;;;;;146.60;61.93;;;;;;;;;;10519762;28;20039;-81
2023/12/04 02:01:56;;;;;;;136.37;60.47;;;;;;;;;;10513262;28;20040;-81
2023/12/04 02:06:57;;;;;;;159.40;70.13;;;;;;;;;;10526330;28;20039;-81
2023/12/04 02:11:59;;;;;;;144.40;65.63;;;;;;;;;;10531868;28;20388;-82
2023/12/04 02:17:02;;;;;;;139.00;64.00;;;;;;;;;;10521573;28;20032;-81
2023/12/04 02:22:10;;;;;;;148.30;63.80;;;;;;;;;;10527928;28;20052;-82
2023/12/04 02:27:15;;;;;;;132.77;60.00;;;;;;;;;;10518217;28;20028;-81
2023/12/04 02:32:17;;;;;;;133.93;61.53;;;;;;;;;;10517504;28;20040;-83
2023/12/04 02:37:19;;;;;;;131.53;56.60;;;;;;;;;;10505755;28;20762;-82
2023/12/04 02:42:20;;;;;;;138.27;63.27;;;;;;;;;;10536302;28;20024;-83
2023/12/04 02:47:21;;;;;;;122.13;56.30;;;;;;;;;;10527257;28;20055;-81
2023/12/04 02:52:22;;;;;;;137.80;61.03;;;;;;;;;;10526940;28;20028;-82
2023/12/04 02:57:23;;;;;;;107.37;51.63;;;;;;;;;;10520457;28;20082;-82
2023/12/04 03:02:24;;;;;;;105.30;47.83;;;;;;;;;;10539131;28;20051;-82
2023/12/04 03:07:26;;;;;;;125.63;55.27;;;;;;;;;;10529075;28;20418;-83
2023/12/04 03:12:27;;;;;;;124.33;57.10;;;;;;;;;;10519440;28;20027;-81
2023/12/04 03:17:28;;;;;;;113.73;51.40;;;;;;;;;;10535292;28;20811;-81
2023/12/04 03:22:29;;;;;;;128.60;58.93;;;;;;;;;;10536248;28;20079;-81
2023/12/04 03:27:30;;;;;;;111.53;50.13;;;;;;;;;;10529981;28;20040;-83
2023/12/04 03:32:31;;;;;;;109.93;47.50;;;;;;;;;;10527598;28;20057;-81
2023/12/04 03:37:39;;;;;;;96.50;41.73;;;;;;;;;;10531744;28;20502;-81
2023/12/04 03:42:40;;;;;;;106.83;45.40;;;;;;;;;;10535226;28;20127;-83
2023/12/04 03:47:41;;;;;;;113.60;49.07;;;;;;;;;;10516204;28;20024;-81
2023/12/04 03:52:42;;;;;;;113.80;51.63;;;;;;;;;;10527809;28;20035;-82
2023/12/04 03:57:45;;;;;;;125.10;53.30;;;;;;;;;;10534718;28;20533;-81
2023/12/04 04:02:46;;;;;;;144.00;63.10;;;;;;;;;;10536466;28;20067;-81
2023/12/04 04:07:47;;;;;;;152.47;64.50;;;;;;;;;;10532206;28;20035;-82
2023/12/04 04:12:48;;;;;;;151.83;64.03;;;;;;;;;;10517703;28;20039;-83
2023/12/04 04:17:49;;;;;;;149.30;64.87;;;;;;;;;;10530888;28;20050;-81
2023/12/04 04:22:50;;;;;;;152.03;62.83;;;;;;;;;;10526486;28;20107;-83
2023/12/04 04:27:51;;;;;;;139.50;59.70;;;;;;;;;;10526041;28;20035;-83
2023/12/04 04:32:52;;;;;;;119.57;54.93;;;;;;;;;;10529712;28;20147;-82
2023/12/04 04:38:00;;;;;;;141.73;60.57;;;;;;;;;;10521459;28;20128;-83
2023/12/04 04:43:01;;;;;;;142.40;60.53;;;;;;;;;;10512316;28;20040;-82
2023/12/04 04:48:02;;;;;;;102.37;46.90;;;;;;;;;;10524809;28;20062;-80
2023/12/04 04:53:03;;;;;;;103.23;46.53;;;;;;;;;;10528197;28;20030;-80
2023/12/04 04:58:04;;;;;;;108.50;49.00;;;;;;;;;;10521063;28;20038;-81
2023/12/04 05:03:05;;;;;;;85.83;40.67;;;;;;;;;;10519890;28;20034;-82
2023/12/04 05:08:12;;;;;;;103.10;43.43;;;;;;;;;;10526050;28;20032;-78
2023/12/04 05:13:14;;;;;;;120.73;49.47;;;;;;;;;;10510271;28;20044;-81
2023/12/04 05:18:15;;;;;;;122.60;55.00;;;;;;;;;;10515049;28;20127;-81
2023/12/04 05:23:16;;;;;;;109.63;47.77;;;;;;;;;;10521496;28;20059;-83
2023/12/04 05:28:17;;;;;;;100.53;47.73;;;;;;;;;;10531158;28;20034;-84
2023/12/04 05:33:18;;;;;;;95.93;42.47;;;;;;;;;;10524126;28;20024;-81
2023/12/04 05:38:19;;;;;;;106.13;46.40;;;;;;;;;;10531820;28;20036;-81
2023/12/04 05:43:20;;;;;;;93.93;42.00;;;;;;;;;;10525738;28;20024;-81
2023/12/04 05:48:21;;;;;;;96.80;44.80;;;;;;;;;;10530305;28;20460;-81
2023/12/04 05:53:22;;;;;;;95.27;43.20;;;;;;;;;;10531895;28;20028;-84
2023/12/04 05:58:23;;;;;;;87.70;40.87;;;;;;;;;;10528061;28;20109;-81
2023/12/04 06:03:24;;;;;;;84.10;40.30;;;;;;;;;;10520893;28;20532;-84
2023/12/04 06:08:25;;;;;;;103.90;46.90;;;;;;;;;;10520166;28;20032;-80
2023/12/04 06:13:26;;;;;;;96.00;42.33;;;;;;;;;;10528817;28;20387;-81
2023/12/04 06:18:27;;;;;;;83.07;38.77;;;;;;;;;;10530900;28;20072;-81
2023/12/04 06:23:42;;;;;;;88.37;39.00;;;;;;;;;;10482796;28;20053;-82
2023/12/04 06:28:44;;;;;;;87.40;39.87;;;;;;;;;;10477043;28;20032;-82
2023/12/04 06:33:45;;;;;;;84.83;38.23;;;;;;;;;;10487055;28;20719;-81
2023/12/04 06:38:48;;;;;;;94.13;41.33;;;;;;;;;;10473380;28;20036;-80
2023/12/04 06:43:49;;;;;;;100.77;42.13;;;;;;;;;;10484539;28;20044;-81
2023/12/04 06:48:51;;;;;;;104.10;47.73;;;;;;;;;;10486135;28;20035;-81
2023/12/04 06:53:52;;;;;;;105.57;44.50;;;;;;;;;;10483779;28;20473;-81
2023/12/04 06:58:53;;;;;;;160.23;68.77;;;;;;;;;;10481813;28;20044;-82
2023/12/04 07:03:54;;;;;;;120.23;53.80;;;;;;;;;;10488011;28;20492;-81
2023/12/04 07:08:55;;;;;;;116.17;52.40;;;;;;;;;;10485841;28;20036;-83
2023/12/04 07:13:56;;;;;;;102.80;44.43;;;;;;;;;;10485168;28;20441;-81
2023/12/04 07:18:57;;;;;;;101.13;43.90;;;;;;;;;;10485436;28;20467;-81
2023/12/04 07:24:05;;;;;;;160.20;55.67;;;;;;;;;;10525227;28;20052;-81
2023/12/04 07:29:07;;;;;;;259.03;64.40;;;;;;;;;;10530404;28;20072;-82
2023/12/04 07:34:15;;;;;;;100.43;42.90;;;;;;;;;;10530070;28;20028;-81
2023/12/04 07:39:16;;;;;;;103.07;43.43;;;;;;;;;;10536007;28;20028;-80
2023/12/04 07:44:17;;;;;;;145.57;57.67;;;;;;;;;;10531219;28;20040;-82
2023/12/04 07:49:18;;;;;;;121.53;54.77;;;;;;;;;;10522435;28;20024;-81
2023/12/04 07:54:19;;;;;;;117.87;53.93;;;;;;;;;;10530797;28;20028;-81
2023/12/04 07:59:20;;;;;;;120.43;53.33;;;;;;;;;;10529403;28;20040;-81
2023/12/04 08:04:21;;;;;;;147.60;62.43;;;;;;;;;;10531851;28;20119;-81
2023/12/04 08:09:22;;;;;;;165.93;70.03;;;;;;;;;;10530106;28;20034;-80
2023/12/04 08:14:23;;;;;;;139.03;64.10;;;;;;;;;;10535373;28;20062;-81
2023/12/04 08:19:24;;;;;;;231.90;94.63;;;;;;;;;;10536004;28;20479;-81
2023/12/04 08:24:25;;;;;;;220.17;91.03;;;;;;;;;;10531474;28;20089;-82
2023/12/04 08:29:26;;;;;;;265.73;110.60;;;;;;;;;;10525486;28;20437;-82
2023/12/04 08:34:27;;;;;;;300.47;129.20;;;;;;;;;;10507043;28;20119;-82
2023/12/04 08:39:28;;;;;;;212.33;104.90;;;;;;;;;;10519332;28;20067;-82
2023/12/04 08:44:29;;;;;;;194.27;97.27;;;;;;;;;;10524535;28;20024;-81
2023/12/04 08:49:30;;;;;;;165.60;79.67;;;;;;;;;;10504020;28;20037;-80
2023/12/04 08:54:38;;;;;;;184.37;98.67;;;;;;;;;;10519847;28;20484;-82
2023/12/04 08:59:39;;;;;;;199.43;97.77;;;;;;;;;;10527020;28;20068;-81
2023/12/04 09:04:40;;;;;;;169.43;86.63;;;;;;;;;;10533266;28;20111;-83
2023/12/04 09:09:41;;;;;;;155.23;77.40;;;;;;;;;;10533845;28;20034;-82
2023/12/04 09:14:42;;;;;;;140.07;69.10;;;;;;;;;;10533261;28;20027;-82
2023/12/04 09:19:43;;;;;;;142.10;68.63;;;;;;;;;;10513601;28;20050;-82
2023/12/04 09:24:44;;;;;;;129.53;67.60;;;;;;;;;;10527865;28;20526;-81
2023/12/04 09:29:46;;;;;;;126.67;64.00;;;;;;;;;;10516542;28;20036;-81
2023/12/04 09:34:47;;;;;;;126.57;62.73;;;;;;;;;;10519064;28;20040;-81
2023/12/04 09:39:49;;;;;;;120.93;60.83;;;;;;;;;;10521075;28;20464;-81
2023/12/04 09:44:53;;;;;;;154.80;76.47;;;;;;;;;;10527359;28;20055;-82
2023/12/04 09:49:55;;;;;;;149.73;74.10;;;;;;;;;;10529608;28;20476;-82
2023/12/04 09:54:56;;;;;;;113.77;56.30;;;;;;;;;;10525910;28;20124;-81
2023/12/04 09:59:59;;;;;;;144.83;71.43;;;;;;;;;;10523219;28;20482;-81
2023/12/04 10:05:00;;;;;;;119.27;58.63;;;;;;;;;;10522252;28;20040;-82
2023/12/04 10:10:01;;;;;;;99.07;53.07;;;;;;;;;;10516620;28;20077;-83
2023/12/04 10:15:06;;;;;;;95.33;47.33;;;;;;;;;;10523320;28;20036;-81
2023/12/04 10:20:12;;;;;;;74.27;37.47;;;;;;;;;;10516825;28;20047;-81
2023/12/04 10:25:17;;;;;;;62.90;32.07;;;;;;;;;;10476475;28;20451;-82
2023/12/04 10:30:31;;;;;;;76.57;35.83;;;;;;;;;;10489147;28;20024;-81
2023/12/04 10:35:33;;;;;;;57.73;32.17;;;;;;;;;;10489320;28;20017;-81
2023/12/04 10:40:41;;;;;;;57.63;28.57;;;;;;;;;;10489054;28;20036;-82
2023/12/04 10:45:43;;;;;;;46.07;24.03;;;;;;;;;;10489157;28;20059;-82
2023/12/04 10:50:45;;;;;;;50.43;25.60;;;;;;;;;;10489773;28;20028;-81
2023/12/04 10:55:48;;;;;;;47.00;23.90;;;;;;;;;;10490511;28;20567;-83
2023/12/04 11:00:49;;;;;;;53.63;26.17;;;;;;;;;;10497027;28;20040;-83
2023/12/04 11:05:57;;;;;;;44.67;22.37;;;;;;;;;;10496223;28;20116;-81
2023/12/04 11:11:10;;;;;;;43.73;23.33;;;;;;;;;;10496515;28;20364;-82
2023/12/04 11:16:24;;;;;;;96.90;60.80;;;;;;;;;;10496567;28;20047;-81
2023/12/04 11:21:25;;;;;;;90.67;40.23;;;;;;;;;;10505949;28;20060;-81
2023/12/04 11:26:28;;;;;;;91.00;43.13;;;;;;;;;;10525472;28;20024;-81
2023/12/04 11:31:29;;;;;;;75.63;38.23;;;;;;;;;;10525301;28;20032;-82
2023/12/04 11:36:30;;;;;;;47.00;23.53;;;;;;;;;;10537308;28;20012;-83
2023/12/04 11:41:32;;;;;;;44.53;23.10;;;;;;;;;;10536079;28;20482;-81
2023/12/04 11:46:33;;;;;;;45.33;24.67;;;;;;;;;;10538148;28;20027;-83
2023/12/04 11:51:40;;;;;;;48.20;25.03;;;;;;;;;;10537184;28;20051;-81
2023/12/04 11:56:41;;;;;;;78.73;38.40;;;;;;;;;;10536120;28;20048;-81
2023/12/04 12:01:43;;;;;;;42.37;21.60;;;;;;;;;;10536467;28;20032;-81
2023/12/04 12:06:45;;;;;;;40.80;21.73;;;;;;;;;;10535422;28;20123;-81
2023/12/04 12:11:46;;;;;;;38.13;22.90;;;;;;;;;;10536074;28;20027;-81
2023/12/04 12:16:47;;;;;;;43.07;22.03;;;;;;;;;;10535399;28;20035;-81
2023/12/04 12:21:51;;;;;;;37.80;20.47;;;;;;;;;;10534923;28;20056;-81
2023/12/04 12:26:52;;;;;;;66.83;31.80;;;;;;;;;;10535033;28;20012;-81
2023/12/04 12:31:54;;;;;;;54.83;27.60;;;;;;;;;;10535066;28;20103;-81
2023/12/04 12:36:55;;;;;;;56.63;30.13;;;;;;;;;;10534898;28;20016;-81
2023/12/04 12:41:56;;;;;;;46.40;24.33;;;;;;;;;;10530397;28;20047;-81
2023/12/04 12:46:57;;;;;;;45.10;22.73;;;;;;;;;;10533047;28;20044;-82
2023/12/04 12:52:00;;;;;;;40.13;21.87;;;;;;;;;;10534273;28;20107;-81
2023/12/04 13:02:45;;;;;;;109.53;49.27;;;;;;;;;;10479304;28;20075;-81
2023/12/04 13:07:46;;;;;;;221.80;84.53;;;;;;;;;;10491743;28;20060;-81
2023/12/04 13:12:47;;;;;;;215.07;97.97;;;;;;;;;;10485764;28;20033;-82
2023/12/04 13:17:48;;;;;;;59.37;32.93;;;;;;;;;;10484961;28;20207;-82
2023/12/04 13:22:49;;;;;;;60.03;30.30;;;;;;;;;;10491559;28;20056;-82
2023/12/04 13:27:50;;;;;;;64.87;29.57;;;;;;;;;;10465980;28;20115;-82
2023/12/04 13:33:01;;;;;;;53.37;27.93;;;;;;;;;;10481006;28;20170;-83
2023/12/04 13:38:02;;;;;;;74.20;32.33;;;;;;;;;;10477439;28;20037;-79
2023/12/04 13:48:25;;;;;;;67.40;32.20;;;;;;;;;;10480577;28;20111;-81
2023/12/04 13:53:30;;;;;;;70.77;34.63;;;;;;;;;;10476153;28;20108;-83
2023/12/04 13:58:44;;;;;;;62.30;30.47;;;;;;;;;;10469121;28;20072;-81
2023/12/04 14:03:47;;;;;;;76.00;35.53;;;;;;;;;;10497225;28;20024;-82
2023/12/04 14:08:48;;;;;;;74.23;35.87;;;;;;;;;;10481511;28;20032;-81
2023/12/04 14:13:50;;;;;;;90.27;41.73;;;;;;;;;;10488375;28;20316;-82
2023/12/04 14:18:51;;;;;;;85.00;39.43;;;;;;;;;;10496092;28;20036;-82
2023/12/04 14:23:52;;;;;;;71.93;34.77;;;;;;;;;;10485593;28;20048;-83
2023/12/04 14:28:53;;;;;;;80.17;37.33;;;;;;;;;;10476803;28;20064;-82
2023/12/04 14:33:55;;;;;;;91.20;42.63;;;;;;;;;;10490169;28;20067;-83
2023/12/04 14:38:56;;;;;;;85.33;41.53;;;;;;;;;;10493483;28;20035;-82
2023/12/04 14:43:57;;;;;;;97.17;43.73;;;;;;;;;;10474872;28;20028;-81
2023/12/04 14:48:58;;;;;;;170.30;72.53;;;;;;;;;;10490827;28;20031;-82
2023/12/04 14:54:21;;;;;;;150.10;64.13;;;;;;;;;;10494397;28;20120;-81
2023/12/04 15:20:38;;;;;;;133.77;50.40;;;;;;;;;;10456546;28;20484;-81
2023/12/04 15:25:40;;;;;;;296.20;98.77;;;;;;;;;;10483999;28;20052;-82
2023/12/04 15:30:41;;;;;;;318.43;110.37;;;;;;;;;;10468504;28;20039;-83
2023/12/04 15:35:42;;;;;;;331.43;121.37;;;;;;;;;;10481167;28;20035;-81
2023/12/04 15:40:43;;;;;;;423.83;161.67;;;;;;;;;;10480655;28;20044;-81
2023/12/04 15:45:44;;;;;;;259.73;103.53;;;;;;;;;;10497662;28;20111;-81
2023/12/04 15:50:46;;;;;;;236.73;101.73;;;;;;;;;;10485139;28;20037;-82
2023/12/04 15:55:47;;;;;;;192.77;79.67;;;;;;;;;;10492316;28;20075;-81
2023/12/04 16:00:48;;;;;;;179.77;75.80;;;;;;;;;;10492308;28;20105;-82
2023/12/04 16:05:49;;;;;;;167.00;72.53;;;;;;;;;;10497482;28;20067;-82
2023/12/04 16:10:50;;;;;;;130.30;57.40;;;;;;;;;;10490167;28;20430;-82
2023/12/04 16:15:51;;;;;;;213.17;90.07;;;;;;;;;;10481694;28;20025;-81
2023/12/04 16:20:59;;;;;;;220.77;90.50;;;;;;;;;;10505144;28;20557;-82
2023/12/04 16:26:00;;;;;;;214.97;91.17;;;;;;;;;;10494948;28;20051;-83
2023/12/04 16:31:01;;;;;;;173.37;71.50;;;;;;;;;;10496566;28;20043;-81
2023/12/04 16:36:02;;;;;;;181.60;78.07;;;;;;;;;;10511473;28;20754;-82
2023/12/04 16:41:04;;;;;;;177.43;74.40;;;;;;;;;;10496556;28;20040;-82
2023/12/04 16:46:06;;;;;;;162.30;70.47;;;;;;;;;;10488656;28;20036;-81
2023/12/04 16:51:07;;;;;;;158.27;63.63;;;;;;;;;;10492116;28;20605;-81
2023/12/04 16:56:15;;;;;;;103.63;45.20;;;;;;;;;;10485409;28;20163;-82
2023/12/04 17:01:16;;;;;;;137.37;57.40;;;;;;;;;;10483711;28;20060;-81
2023/12/04 17:06:17;;;;;;;115.90;50.57;;;;;;;;;;10468427;28;20484;-82
2023/12/04 17:11:25;;;;;;;107.50;46.53;;;;;;;;;;10489456;28;20036;-82
2023/12/04 17:16:27;;;;;;;136.80;57.53;;;;;;;;;;10471712;28;20032;-79
2023/12/04 17:21:28;;;;;;;97.87;44.83;;;;;;;;;;10474102;28;20057;-80
2023/12/04 17:26:29;;;;;;;66.27;30.00;;;;;;;;;;10490668;28;20102;-81
2023/12/04 17:31:30;;;;;;;84.47;38.17;;;;;;;;;;10489936;28;20021;-80
2023/12/04 17:36:31;;;;;;;84.67;37.03;;;;;;;;;;10476771;28;20124;-81
2023/12/04 17:41:33;;;;;;;100.37;43.20;;;;;;;;;;10475280;28;20131;-81
2023/12/04 17:46:34;;;;;;;90.50;37.03;;;;;;;;;;10494235;28;20037;-81
2023/12/04 17:51:36;;;;;;;94.93;42.10;;;;;;;;;;10484302;28;20032;-82
2023/12/04 17:56:37;;;;;;;100.10;43.67;;;;;;;;;;10489205;28;20492;-81
2023/12/04 18:01:38;;;;;;;85.97;39.27;;;;;;;;;;10489938;28;20063;-79
2023/12/04 18:06:39;;;;;;;96.50;42.37;;;;;;;;;;10484069;28;20119;-80
2023/12/04 18:11:40;;;;;;;96.47;40.97;;;;;;;;;;10479613;28;20127;-79
2023/12/04 18:16:41;;;;;;;94.17;43.03;;;;;;;;;;10482718;28;20101;-80
2023/12/04 18:21:42;;;;;;;94.57;44.33;;;;;;;;;;10477992;28;20973;-81
2023/12/04 18:26:44;;;;;;;90.83;41.10;;;;;;;;;;10463860;28;20512;-80
2023/12/04 18:31:45;;;;;;;108.70;46.90;;;;;;;;;;10434426;28;20039;-81
2023/12/04 18:36:48;;;;;;;93.90;44.23;;;;;;;;;;10462953;28;20066;-81
2023/12/04 18:41:49;;;;;;;94.87;41.20;;;;;;;;;;10465594;28;20041;-82
2023/12/04 18:46:55;;;;;;;107.90;47.67;;;;;;;;;;10442978;28;20163;-79
2023/12/04 18:52:02;;;;;;;92.80;42.00;;;;;;;;;;10451536;28;20057;-82
2023/12/04 18:57:12;;;;;;;99.17;44.73;;;;;;;;;;10466467;28;20017;-82
2023/12/04 19:02:13;;;;;;;121.53;52.63;;;;;;;;;;10442307;28;20033;-81
2023/12/04 19:07:14;;;;;;;188.87;71.93;;;;;;;;;;10448158;28;20025;-82
2023/12/04 19:12:15;;;;;;;104.10;43.97;;;;;;;;;;10453338;28;20028;-78
2023/12/04 19:17:16;;;;;;;100.50;40.97;;;;;;;;;;10476061;28;20483;-79
2023/12/04 19:22:19;;;;;;;158.20;59.40;;;;;;;;;;10455232;28;20063;-81
2023/12/04 19:27:20;;;;;;;139.47;54.67;;;;;;;;;;10439179;28;20033;-80
2023/12/04 19:32:21;;;;;;;111.40;45.73;;;;;;;;;;10433329;28;20029;-80
2023/12/04 19:37:22;;;;;;;111.47;43.27;;;;;;;;;;10446110;28;20029;-80
2023/12/04 19:42:26;;;;;;;110.07;46.13;;;;;;;;;;10436059;28;20406;-81
2023/12/04 19:47:27;;;;;;;108.20;45.57;;;;;;;;;;10427823;28;20511;-81
2023/12/04 19:52:28;;;;;;;110.53;48.37;;;;;;;;;;10435197;28;20033;-82
2023/12/04 19:57:29;;;;;;;97.57;40.60;;;;;;;;;;10434102;28;20120;-81
2023/12/04 20:02:30;;;;;;;105.13;44.33;;;;;;;;;;10447583;28;20040;-80
2023/12/04 20:07:31;;;;;;;95.93;40.27;;;;;;;;;;10445585;28;20033;-83
2023/12/04 20:12:33;;;;;;;115.83;47.33;;;;;;;;;;10438779;28;20037;-80
2023/12/04 20:17:34;;;;;;;112.17;48.43;;;;;;;;;;10433692;28;20044;-82
2023/12/04 20:22:35;;;;;;;108.07;45.87;;;;;;;;;;10461454;28;20056;-82
2023/12/04 20:27:36;;;;;;;85.43;38.77;;;;;;;;;;10507172;28;20103;-83
2023/12/04 20:32:37;;;;;;;103.30;40.77;;;;;;;;;;10494173;28;20052;-82
2023/12/04 20:37:38;;;;;;;104.63;46.23;;;;;;;;;;10494874;28;20067;-83
2023/12/04 20:42:39;;;;;;;99.50;43.97;;;;;;;;;;10499463;28;20163;-81
2023/12/04 20:47:40;;;;;;;107.23;45.53;;;;;;;;;;10498830;28;20035;-82
2023/12/04 20:52:41;;;;;;;106.27;44.40;;;;;;;;;;10496454;28;20373;-82
2023/12/04 20:57:43;;;;;;;98.70;40.17;;;;;;;;;;10492826;28;20099;-82
2023/12/04 21:02:44;;;;;;;85.17;38.03;;;;;;;;;;10488735;28;20194;-81
2023/12/04 21:07:45;;;;;;;99.37;43.77;;;;;;;;;;10490839;28;20075;-81
2023/12/04 21:12:46;;;;;;;92.80;41.63;;;;;;;;;;10490186;28;20124;-82
2023/12/04 21:17:47;;;;;;;96.93;41.30;;;;;;;;;;10490829;28;20066;-81
2023/12/04 21:22:48;;;;;;;95.80;42.50;;;;;;;;;;10492120;28;20514;-83
2023/12/04 21:27:49;;;;;;;105.07;43.37;;;;;;;;;;10450952;28;20485;-82
2023/12/04 21:32:50;;;;;;;116.53;47.67;;;;;;;;;;10442135;28;20029;-84
2023/12/04 21:37:51;;;;;;;125.87;49.20;;;;;;;;;;10435839;28;20065;-81
2023/12/04 21:42:52;;;;;;;163.13;66.30;;;;;;;;;;10441722;28;20532;-81
2023/12/04 21:47:53;;;;;;;165.13;69.27;;;;;;;;;;10444225;28;20854;-84
2023/12/04 21:52:54;;;;;;;157.40;62.30;;;;;;;;;;10440533;28;20032;-81
2023/12/04 21:57:55;;;;;;;111.33;49.50;;;;;;;;;;10417392;28;20182;-82
2023/12/04 22:02:56;;;;;;;111.33;47.87;;;;;;;;;;10441479;28;20136;-81
2023/12/04 22:07:57;;;;;;;101.20;47.40;;;;;;;;;;10440052;28;20120;-81
2023/12/04 22:12:58;;;;;;;115.00;48.03;;;;;;;;;;10445916;28;20948;-82
2023/12/04 22:18:00;;;;;;;125.97;51.13;;;;;;;;;;10446802;28;20044;-83
2023/12/04 22:23:08;;;;;;;121.27;53.23;;;;;;;;;;10417827;28;20171;-80
2023/12/04 22:28:09;;;;;;;127.03;52.23;;;;;;;;;;10427642;28;20276;-81
2023/12/04 22:33:10;;;;;;;120.37;55.27;;;;;;;;;;10440317;28;20032;-81
2023/12/04 22:38:11;;;;;;;118.73;49.67;;;;;;;;;;10423011;28;20024;-81
2023/12/04 22:43:19;;;;;;;131.00;56.03;;;;;;;;;;10448439;28;20362;-81
2023/12/04 22:48:20;;;;;;;99.23;43.80;;;;;;;;;;10444274;28;20492;-82
2023/12/04 22:53:21;;;;;;;112.47;50.57;;;;;;;;;;10440343;28;20123;-81
2023/12/04 22:58:22;;;;;;;111.07;46.80;;;;;;;;;;10443623;28;20043;-82
2023/12/04 23:03:24;;;;;;;126.47;50.47;;;;;;;;;;10435466;28;20035;-81
2023/12/04 23:08:25;;;;;;;106.80;44.20;;;;;;;;;;10434498;28;20147;-81
2023/12/04 23:13:26;;;;;;;115.90;48.37;;;;;;;;;;10447287;28;20112;-82
2023/12/04 23:18:27;;;;;;;115.73;48.00;;;;;;;;;;10446920;28;20484;-81
2023/12/04 23:23:28;;;;;;;112.00;50.30;;;;;;;;;;10461303;28;20056;-81
2023/12/04 23:28:29;;;;;;;126.50;55.63;;;;;;;;;;10504375;28;20468;-82
2023/12/04 23:33:30;;;;;;;122.77;54.70;;;;;;;;;;10493107;28;20472;-82
2023/12/04 23:38:31;;;;;;;99.47;46.43;;;;;;;;;;10499288;28;20504;-81
2023/12/04 23:43:32;;;;;;;105.23;46.03;;;;;;;;;;10499679;28;20116;-81
2023/12/04 23:48:33;;;;;;;107.00;49.00;;;;;;;;;;10497797;28;20110;-81
2023/12/04 23:53:34;;;;;;;93.20;44.40;;;;;;;;;;10497203;28;20037;-83
2023/12/04 23:58:35;;;;;;;98.70;44.87;;;;;;;;;;10503668;28;20508;-82
